SBI5579 UNNT-UBBB
Flight info
| Callsign | SBI5579 |
|---|---|
| Flight time | 4h 27m |
| Altitude | 32000 |
| Route | LUNIM1K LUNIM B808 DAKIN N55 ATNON/K0835F340 N55 BALUN/N0452F340 N70 ROPKA |
| Aircraft | A321/M-SDE3FGHIRWY/LB1 |
Departure
| Time | 2026-05-07 09:06 |
|---|---|
| Airport | Novosibirsk Tolmachevo Airport (UNNT) |
Arrival
| Time | 2026-05-07 13:33 |
|---|---|
| Airport | Heydar Aliyev International Airport (UBBB) |
| Time | Latitude | Longitude | Altitude | Speed | Heading |
|---|---|---|---|---|---|
| 2026-05-07 08:26 | 55.01036 | 82.66752 | 373 ft | 0 kts | 170° |
| 2026-05-07 08:57 | 55.01038 | 82.66752 | 373 ft | 2 kts | 169° |
| 2026-05-07 08:58 | 55.01054 | 82.66747 | 373 ft | 2 kts | 169° |
| 2026-05-07 08:58 | 55.01070 | 82.66741 | 373 ft | 2 kts | 165° |
| 2026-05-07 08:58 | 55.01086 | 82.66733 | 373 ft | 2 kts | 151° |
| 2026-05-07 08:58 | 55.01095 | 82.66713 | 373 ft | 1 kts | 78° |
| 2026-05-07 08:59 | 55.01095 | 82.66708 | 373 ft | 0 kts | 87° |
| 2026-05-07 09:01 | 55.01095 | 82.66709 | 373 ft | 0 kts | 86° |
| 2026-05-07 09:01 | 55.01095 | 82.66714 | 373 ft | 1 kts | 87° |
| 2026-05-07 09:02 | 55.01095 | 82.66728 | 373 ft | 2 kts | 86° |
| 2026-05-07 09:02 | 55.01098 | 82.66772 | 373 ft | 4 kts | 85° |
| 2026-05-07 09:02 | 55.01092 | 82.66860 | 373 ft | 9 kts | 115° |
| 2026-05-07 09:02 | 55.01080 | 82.66966 | 373 ft | 9 kts | 83° |
| 2026-05-07 09:03 | 55.01090 | 82.67076 | 373 ft | 9 kts | 81° |
| 2026-05-07 09:03 | 55.01102 | 82.67211 | 373 ft | 12 kts | 81° |
| 2026-05-07 09:03 | 55.01108 | 82.67373 | 373 ft | 14 kts | 88° |
| 2026-05-07 09:03 | 55.01156 | 82.67500 | 373 ft | 13 kts | 31° |
| 2026-05-07 09:04 | 55.01236 | 82.67580 | 373 ft | 13 kts | 30° |
| 2026-05-07 09:04 | 55.01315 | 82.67663 | 373 ft | 13 kts | 31° |
| 2026-05-07 09:04 | 55.01397 | 82.67748 | 372 ft | 14 kts | 31° |
| 2026-05-07 09:04 | 55.01480 | 82.67738 | 371 ft | 13 kts | 300° |
| 2026-05-07 09:05 | 55.01477 | 82.67627 | 371 ft | 0 kts | 261° |
| 2026-05-07 09:05 | 55.01477 | 82.67620 | 371 ft | 2 kts | 261° |
| 2026-05-07 09:05 | 55.01449 | 82.67319 | 372 ft | 59 kts | 261° |
| 2026-05-07 09:05 | 55.01350 | 82.66228 | 372 ft | 121 kts | 261° |
| 2026-05-07 09:06 | 55.01189 | 82.64473 | 372 ft | 171 kts | 261° |
| 2026-05-07 09:06 | 55.00986 | 82.62251 | 683 ft | 191 kts | 261° |
| 2026-05-07 09:06 | 55.00787 | 82.59937 | 1412 ft | 195 kts | 261° |
| 2026-05-07 09:06 | 55.00577 | 82.57529 | 1812 ft | 208 kts | 260° |
| 2026-05-07 09:07 | 55.00349 | 82.55074 | 2311 ft | 209 kts | 260° |
| 2026-05-07 09:07 | 55.00384 | 82.52469 | 2530 ft | 225 kts | 285° |
| 2026-05-07 09:07 | 55.00951 | 82.49829 | 2692 ft | 244 kts | 292° |
| 2026-05-07 09:07 | 55.01683 | 82.47100 | 3289 ft | 245 kts | 295° |
| 2026-05-07 09:08 | 55.02415 | 82.44459 | 3932 ft | 246 kts | 294° |
| 2026-05-07 09:08 | 55.03153 | 82.41762 | 4548 ft | 247 kts | 294° |
| 2026-05-07 09:08 | 55.03875 | 82.39031 | 5129 ft | 249 kts | 289° |
| 2026-05-07 09:08 | 55.04215 | 82.36083 | 5647 ft | 253 kts | 269° |
| 2026-05-07 09:09 | 55.03983 | 82.32962 | 5984 ft | 265 kts | 259° |
| 2026-05-07 09:09 | 55.03648 | 82.29781 | 6532 ft | 269 kts | 259° |
| 2026-05-07 09:09 | 55.03311 | 82.26540 | 6985 ft | 274 kts | 259° |
| 2026-05-07 09:09 | 55.02973 | 82.23275 | 7062 ft | 273 kts | 260° |
| 2026-05-07 09:10 | 55.02636 | 82.20026 | 7078 ft | 272 kts | 259° |
| 2026-05-07 09:10 | 55.02301 | 82.16780 | 7075 ft | 272 kts | 259° |
| 2026-05-07 09:10 | 55.02079 | 82.14636 | 7078 ft | 271 kts | 259° |
| 2026-05-07 09:10 | 55.01740 | 82.11397 | 7077 ft | 271 kts | 259° |
| 2026-05-07 09:11 | 55.01401 | 82.08161 | 7075 ft | 272 kts | 259° |
| 2026-05-07 09:11 | 55.01064 | 82.04924 | 7072 ft | 272 kts | 259° |
| 2026-05-07 09:11 | 55.00726 | 82.01680 | 7075 ft | 272 kts | 259° |
| 2026-05-07 09:11 | 55.00463 | 81.98416 | 7082 ft | 273 kts | 268° |
| 2026-05-07 09:12 | 55.00403 | 81.95104 | 7590 ft | 274 kts | 268° |
| 2026-05-07 09:12 | 55.00332 | 81.91776 | 8201 ft | 276 kts | 268° |
| 2026-05-07 09:12 | 55.00255 | 81.88428 | 8787 ft | 277 kts | 268° |
| 2026-05-07 09:12 | 55.00174 | 81.85061 | 9352 ft | 279 kts | 268° |
| 2026-05-07 09:13 | 55.00093 | 81.81671 | 9924 ft | 281 kts | 268° |
| 2026-05-07 09:13 | 55.00010 | 81.78249 | 10301 ft | 290 kts | 268° |
| 2026-05-07 09:13 | 54.99922 | 81.74642 | 10420 ft | 306 kts | 268° |
| 2026-05-07 09:13 | 54.99828 | 81.70844 | 10546 ft | 322 kts | 268° |
| 2026-05-07 09:14 | 54.99728 | 81.66861 | 10670 ft | 337 kts | 268° |
| 2026-05-07 09:14 | 54.99625 | 81.62731 | 10974 ft | 344 kts | 268° |
| 2026-05-07 09:14 | 54.99519 | 81.58553 | 11438 ft | 347 kts | 268° |
| 2026-05-07 09:14 | 54.99411 | 81.54337 | 11919 ft | 349 kts | 268° |
| 2026-05-07 09:15 | 54.99300 | 81.50102 | 12408 ft | 351 kts | 268° |
| 2026-05-07 09:15 | 54.99187 | 81.45841 | 12901 ft | 353 kts | 268° |
| 2026-05-07 09:15 | 54.99072 | 81.41557 | 13385 ft | 355 kts | 268° |
| 2026-05-07 09:15 | 54.98954 | 81.37249 | 13867 ft | 357 kts | 268° |
| 2026-05-07 09:16 | 54.98834 | 81.32907 | 14299 ft | 360 kts | 267° |
| 2026-05-07 09:16 | 54.98711 | 81.28545 | 14719 ft | 362 kts | 267° |
| 2026-05-07 09:16 | 54.98586 | 81.24159 | 15134 ft | 364 kts | 267° |
| 2026-05-07 09:16 | 54.98460 | 81.19749 | 15568 ft | 366 kts | 267° |
| 2026-05-07 09:17 | 54.98332 | 81.15309 | 15990 ft | 368 kts | 267° |
| 2026-05-07 09:17 | 54.98201 | 81.10840 | 16408 ft | 371 kts | 267° |
| 2026-05-07 09:17 | 54.98069 | 81.06410 | 16819 ft | 373 kts | 266° |
| 2026-05-07 09:17 | 54.97932 | 81.01888 | 17225 ft | 375 kts | 266° |
| 2026-05-07 09:18 | 54.97793 | 80.97346 | 17629 ft | 377 kts | 266° |
| 2026-05-07 09:18 | 54.97636 | 80.92774 | 18014 ft | 379 kts | 265° |
| 2026-05-07 09:18 | 54.97411 | 80.88187 | 18382 ft | 381 kts | 264° |
| 2026-05-07 09:18 | 54.97137 | 80.83589 | 18711 ft | 383 kts | 263° |
| 2026-05-07 09:19 | 54.96836 | 80.78971 | 19053 ft | 385 kts | 263° |
| 2026-05-07 09:19 | 54.96531 | 80.74340 | 19402 ft | 386 kts | 263° |
| 2026-05-07 09:19 | 54.96228 | 80.69685 | 19753 ft | 387 kts | 263° |
| 2026-05-07 09:19 | 54.95930 | 80.65020 | 20087 ft | 389 kts | 263° |
| 2026-05-07 09:20 | 54.95636 | 80.60335 | 20432 ft | 390 kts | 263° |
| 2026-05-07 09:20 | 54.95343 | 80.55635 | 20774 ft | 391 kts | 264° |
| 2026-05-07 09:20 | 54.95049 | 80.50918 | 21107 ft | 393 kts | 264° |
| 2026-05-07 09:20 | 54.94752 | 80.46192 | 21429 ft | 394 kts | 264° |
| 2026-05-07 09:21 | 54.94450 | 80.41451 | 21781 ft | 395 kts | 264° |
| 2026-05-07 09:21 | 54.94143 | 80.36695 | 22120 ft | 396 kts | 264° |
| 2026-05-07 09:21 | 54.93835 | 80.31935 | 22452 ft | 397 kts | 264° |
| 2026-05-07 09:21 | 54.93524 | 80.27147 | 22777 ft | 399 kts | 264° |
| 2026-05-07 09:22 | 54.93211 | 80.22347 | 23104 ft | 400 kts | 264° |
| 2026-05-07 09:22 | 54.92896 | 80.17550 | 23426 ft | 401 kts | 264° |
| 2026-05-07 09:22 | 54.92578 | 80.12723 | 23728 ft | 402 kts | 264° |
| 2026-05-07 09:22 | 54.92259 | 80.07896 | 23997 ft | 402 kts | 264° |
| 2026-05-07 09:23 | 54.91937 | 80.03063 | 24274 ft | 403 kts | 264° |
| 2026-05-07 09:23 | 54.91610 | 79.98220 | 24556 ft | 403 kts | 264° |
| 2026-05-07 09:23 | 54.91282 | 79.93376 | 24821 ft | 404 kts | 264° |
| 2026-05-07 09:23 | 54.90952 | 79.88530 | 25090 ft | 404 kts | 264° |
| 2026-05-07 09:24 | 54.90621 | 79.83672 | 25357 ft | 405 kts | 264° |
| 2026-05-07 09:24 | 54.90288 | 79.78815 | 25614 ft | 405 kts | 264° |
| 2026-05-07 09:24 | 54.89951 | 79.73942 | 25873 ft | 406 kts | 264° |
| 2026-05-07 09:24 | 54.89610 | 79.69069 | 26132 ft | 407 kts | 264° |
| 2026-05-07 09:25 | 54.89265 | 79.64185 | 26383 ft | 408 kts | 264° |
| 2026-05-07 09:25 | 54.88916 | 79.59302 | 26628 ft | 408 kts | 264° |
| 2026-05-07 09:25 | 54.88565 | 79.54400 | 26875 ft | 409 kts | 264° |
| 2026-05-07 09:25 | 54.88214 | 79.49494 | 27114 ft | 410 kts | 264° |
| 2026-05-07 09:26 | 54.87862 | 79.44577 | 27351 ft | 411 kts | 264° |
| 2026-05-07 09:26 | 54.87510 | 79.39646 | 27584 ft | 412 kts | 264° |
| 2026-05-07 09:26 | 54.87155 | 79.34709 | 27809 ft | 412 kts | 264° |
| 2026-05-07 09:26 | 54.86796 | 79.29764 | 28021 ft | 413 kts | 264° |
| 2026-05-07 09:27 | 54.86435 | 79.24808 | 28235 ft | 414 kts | 264° |
| 2026-05-07 09:27 | 54.86068 | 79.19845 | 28435 ft | 415 kts | 264° |
| 2026-05-07 09:27 | 54.85326 | 79.09964 | 28797 ft | 417 kts | 264° |
| 2026-05-07 09:28 | 54.84950 | 79.04972 | 28973 ft | 417 kts | 264° |
| 2026-05-07 09:28 | 54.84573 | 78.99985 | 29232 ft | 416 kts | 263° |
| 2026-05-07 09:28 | 54.84196 | 78.95018 | 29500 ft | 415 kts | 263° |
| 2026-05-07 09:28 | 54.83818 | 78.90067 | 29752 ft | 413 kts | 263° |
| 2026-05-07 09:29 | 54.83440 | 78.85130 | 30004 ft | 412 kts | 263° |
| 2026-05-07 09:29 | 54.83061 | 78.80207 | 30227 ft | 411 kts | 263° |
| 2026-05-07 09:29 | 54.82682 | 78.75294 | 30419 ft | 411 kts | 263° |
| 2026-05-07 09:29 | 54.82301 | 78.70386 | 30611 ft | 410 kts | 263° |
| 2026-05-07 09:30 | 54.81918 | 78.65480 | 30780 ft | 410 kts | 263° |
| 2026-05-07 09:30 | 54.81531 | 78.60587 | 30962 ft | 410 kts | 263° |
| 2026-05-07 09:30 | 54.81140 | 78.55689 | 31142 ft | 409 kts | 263° |
| 2026-05-07 09:30 | 54.80745 | 78.50804 | 31319 ft | 409 kts | 263° |
| 2026-05-07 09:31 | 54.80349 | 78.45924 | 31497 ft | 409 kts | 263° |
| 2026-05-07 09:31 | 54.79952 | 78.41050 | 31675 ft | 409 kts | 263° |
| 2026-05-07 09:31 | 54.79558 | 78.36173 | 31846 ft | 408 kts | 263° |
| 2026-05-07 09:31 | 54.79162 | 78.31302 | 31994 ft | 408 kts | 263° |
| 2026-05-07 09:32 | 54.78769 | 78.26448 | 32018 ft | 406 kts | 263° |
| 2026-05-07 09:32 | 54.77976 | 78.16774 | 32015 ft | 405 kts | 263° |
| 2026-05-07 09:33 | 54.77172 | 78.07121 | 32022 ft | 405 kts | 263° |
| 2026-05-07 09:33 | 54.76360 | 77.97466 | 32019 ft | 405 kts | 263° |
| 2026-05-07 09:34 | 54.75542 | 77.87815 | 32029 ft | 405 kts | 263° |
| 2026-05-07 09:34 | 54.74715 | 77.78164 | 32025 ft | 405 kts | 263° |
| 2026-05-07 09:35 | 54.73871 | 77.68514 | 32030 ft | 406 kts | 262° |
| 2026-05-07 09:35 | 54.73031 | 77.58920 | 32024 ft | 406 kts | 262° |
| 2026-05-07 09:36 | 54.72182 | 77.49269 | 32024 ft | 406 kts | 262° |
| 2026-05-07 09:36 | 54.71321 | 77.39617 | 32028 ft | 406 kts | 262° |
| 2026-05-07 09:37 | 54.70452 | 77.29969 | 32025 ft | 406 kts | 262° |
| 2026-05-07 09:37 | 54.69579 | 77.20332 | 32027 ft | 406 kts | 262° |
| 2026-05-07 09:38 | 54.68698 | 77.10692 | 32022 ft | 406 kts | 262° |
| 2026-05-07 09:38 | 54.67808 | 77.01054 | 32025 ft | 406 kts | 262° |
| 2026-05-07 09:39 | 54.66910 | 76.91425 | 32021 ft | 406 kts | 261° |
| 2026-05-07 09:39 | 54.66009 | 76.81803 | 32022 ft | 406 kts | 261° |
| 2026-05-07 09:40 | 54.65101 | 76.72185 | 32024 ft | 406 kts | 261° |
| 2026-05-07 09:40 | 54.64179 | 76.62578 | 32022 ft | 406 kts | 261° |
| 2026-05-07 09:41 | 54.63247 | 76.52965 | 32022 ft | 406 kts | 261° |
| 2026-05-07 09:41 | 54.62319 | 76.43365 | 32023 ft | 406 kts | 261° |
| 2026-05-07 09:42 | 54.61374 | 76.33767 | 32022 ft | 406 kts | 261° |
| 2026-05-07 09:42 | 54.60425 | 76.24175 | 32013 ft | 406 kts | 261° |
| 2026-05-07 09:43 | 54.59469 | 76.14591 | 32014 ft | 406 kts | 260° |
| 2026-05-07 09:43 | 54.58503 | 76.05012 | 32016 ft | 406 kts | 260° |
| 2026-05-07 09:44 | 54.57528 | 75.95429 | 32019 ft | 406 kts | 260° |
| 2026-05-07 09:44 | 54.56547 | 75.85855 | 32017 ft | 406 kts | 260° |
| 2026-05-07 09:45 | 54.55568 | 75.76285 | 32012 ft | 406 kts | 260° |
| 2026-05-07 09:45 | 54.54569 | 75.66712 | 32012 ft | 406 kts | 259° |
| 2026-05-07 09:46 | 54.53562 | 75.57148 | 32015 ft | 406 kts | 259° |
| 2026-05-07 09:46 | 54.52561 | 75.47596 | 32013 ft | 405 kts | 259° |
| 2026-05-07 09:47 | 54.51546 | 75.38047 | 32002 ft | 405 kts | 259° |
| 2026-05-07 09:47 | 54.50518 | 75.28503 | 32011 ft | 406 kts | 259° |
| 2026-05-07 09:48 | 54.49487 | 75.18958 | 32001 ft | 406 kts | 259° |
| 2026-05-07 09:48 | 54.48456 | 75.09472 | 32007 ft | 406 kts | 259° |
| 2026-05-07 09:49 | 54.47405 | 74.99925 | 32011 ft | 407 kts | 259° |
| 2026-05-07 09:49 | 54.46353 | 74.90373 | 32007 ft | 406 kts | 259° |
| 2026-05-07 09:50 | 54.45293 | 74.80830 | 32008 ft | 407 kts | 258° |
| 2026-05-07 09:50 | 54.44223 | 74.71282 | 32013 ft | 407 kts | 258° |
| 2026-05-07 09:51 | 54.43146 | 74.61738 | 32014 ft | 407 kts | 258° |
| 2026-05-07 09:51 | 54.42057 | 74.52192 | 32012 ft | 407 kts | 258° |
| 2026-05-07 09:52 | 54.40957 | 74.42643 | 32018 ft | 408 kts | 258° |
| 2026-05-07 09:52 | 54.39852 | 74.33129 | 32010 ft | 408 kts | 258° |
| 2026-05-07 09:53 | 54.38737 | 74.23538 | 32075 ft | 410 kts | 258° |
| 2026-05-07 09:53 | 54.38178 | 74.18742 | 32210 ft | 411 kts | 258° |
| 2026-05-07 09:53 | 54.37617 | 74.13935 | 32352 ft | 411 kts | 258° |
| 2026-05-07 09:53 | 54.37053 | 74.09132 | 32526 ft | 410 kts | 258° |
| 2026-05-07 09:54 | 54.36485 | 74.04340 | 32717 ft | 410 kts | 258° |
| 2026-05-07 09:54 | 54.35916 | 73.99560 | 32899 ft | 409 kts | 257° |
| 2026-05-07 09:54 | 54.35344 | 73.94788 | 33087 ft | 408 kts | 257° |
| 2026-05-07 09:54 | 54.34772 | 73.90025 | 33275 ft | 407 kts | 257° |
| 2026-05-07 09:55 | 54.34210 | 73.85339 | 33463 ft | 406 kts | 257° |
| 2026-05-07 09:55 | 54.33632 | 73.80536 | 33640 ft | 406 kts | 257° |
| 2026-05-07 09:55 | 54.33060 | 73.75812 | 33820 ft | 405 kts | 257° |
| 2026-05-07 09:55 | 54.32487 | 73.71102 | 33984 ft | 404 kts | 257° |
| 2026-05-07 09:56 | 54.31912 | 73.66388 | 34002 ft | 404 kts | 257° |
| 2026-05-07 09:56 | 54.30761 | 73.56980 | 34004 ft | 403 kts | 257° |
| 2026-05-07 09:57 | 54.29603 | 73.47591 | 34001 ft | 403 kts | 257° |
| 2026-05-07 09:57 | 54.28637 | 73.39799 | 34004 ft | 402 kts | 257° |
| 2026-05-07 09:58 | 54.27467 | 73.30443 | 34000 ft | 402 kts | 257° |
| 2026-05-07 09:58 | 54.26293 | 73.21085 | 34006 ft | 402 kts | 257° |
| 2026-05-07 09:59 | 54.24920 | 73.10218 | 34010 ft | 403 kts | 257° |
| 2026-05-07 09:59 | 54.23921 | 73.02381 | 34014 ft | 403 kts | 257° |
| 2026-05-07 10:00 | 54.22724 | 72.93029 | 34017 ft | 403 kts | 257° |
| 2026-05-07 10:00 | 54.21522 | 72.83691 | 34015 ft | 402 kts | 257° |
| 2026-05-07 10:01 | 54.20317 | 72.74420 | 34014 ft | 402 kts | 257° |
| 2026-05-07 10:01 | 54.19095 | 72.65091 | 34017 ft | 402 kts | 256° |
| 2026-05-07 10:02 | 54.17864 | 72.55781 | 34010 ft | 402 kts | 256° |
| 2026-05-07 10:02 | 54.16627 | 72.46483 | 34009 ft | 402 kts | 256° |
| 2026-05-07 10:03 | 54.14735 | 72.37560 | 34011 ft | 402 kts | 241° |
| 2026-05-07 10:03 | 54.11769 | 72.29484 | 34010 ft | 402 kts | 239° |
| 2026-05-07 10:04 | 54.08797 | 72.21418 | 34007 ft | 402 kts | 239° |
| 2026-05-07 10:04 | 54.05816 | 72.13354 | 34010 ft | 402 kts | 239° |
| 2026-05-07 10:05 | 54.02820 | 72.05320 | 33977 ft | 403 kts | 240° |
| 2026-05-07 10:05 | 53.99813 | 71.97279 | 33990 ft | 403 kts | 239° |
| 2026-05-07 10:06 | 53.96806 | 71.89255 | 34006 ft | 402 kts | 239° |
| 2026-05-07 10:06 | 53.93801 | 71.81239 | 34008 ft | 402 kts | 239° |
| 2026-05-07 10:07 | 53.90792 | 71.73244 | 34010 ft | 402 kts | 239° |
| 2026-05-07 10:07 | 53.87775 | 71.65269 | 34011 ft | 402 kts | 239° |
| 2026-05-07 10:08 | 53.84755 | 71.57306 | 34006 ft | 401 kts | 239° |
| 2026-05-07 10:08 | 53.81737 | 71.49365 | 34002 ft | 401 kts | 238° |
| 2026-05-07 10:09 | 53.78707 | 71.41422 | 34005 ft | 401 kts | 238° |
| 2026-05-07 10:09 | 53.75671 | 71.33509 | 34003 ft | 401 kts | 238° |
| 2026-05-07 10:10 | 53.72634 | 71.25600 | 34003 ft | 401 kts | 238° |
| 2026-05-07 10:10 | 53.69592 | 71.17704 | 34003 ft | 401 kts | 238° |
| 2026-05-07 10:11 | 53.66569 | 71.09872 | 34003 ft | 401 kts | 238° |
| 2026-05-07 10:11 | 53.63522 | 71.02008 | 34003 ft | 401 kts | 238° |
| 2026-05-07 10:12 | 53.60463 | 70.94153 | 34000 ft | 401 kts | 238° |
| 2026-05-07 10:12 | 53.57404 | 70.86313 | 33997 ft | 401 kts | 238° |
| 2026-05-07 10:13 | 53.54341 | 70.78477 | 33997 ft | 401 kts | 238° |
| 2026-05-07 10:13 | 53.51272 | 70.70660 | 33997 ft | 401 kts | 238° |
| 2026-05-07 10:14 | 53.48198 | 70.62856 | 33992 ft | 401 kts | 238° |
| 2026-05-07 10:14 | 53.45119 | 70.55060 | 33994 ft | 401 kts | 238° |
| 2026-05-07 10:15 | 53.42028 | 70.47278 | 33995 ft | 401 kts | 237° |
| 2026-05-07 10:15 | 53.38932 | 70.39507 | 33993 ft | 401 kts | 237° |
| 2026-05-07 10:16 | 53.35836 | 70.31736 | 33998 ft | 401 kts | 237° |
| 2026-05-07 10:16 | 53.32737 | 70.23972 | 34000 ft | 401 kts | 237° |
| 2026-05-07 10:17 | 53.29630 | 70.16222 | 33995 ft | 401 kts | 237° |
| 2026-05-07 10:17 | 53.26515 | 70.08475 | 33992 ft | 402 kts | 237° |
| 2026-05-07 10:18 | 53.23392 | 70.00745 | 33998 ft | 402 kts | 237° |
| 2026-05-07 10:18 | 53.20258 | 69.93016 | 33996 ft | 402 kts | 237° |
| 2026-05-07 10:19 | 53.17118 | 69.85302 | 34000 ft | 402 kts | 237° |
| 2026-05-07 10:19 | 53.13976 | 69.77588 | 34001 ft | 402 kts | 237° |
| 2026-05-07 10:20 | 53.10832 | 69.69882 | 33992 ft | 402 kts | 237° |
| 2026-05-07 10:20 | 53.07684 | 69.62182 | 33999 ft | 402 kts | 237° |
| 2026-05-07 10:21 | 53.04544 | 69.54552 | 33997 ft | 403 kts | 237° |
| 2026-05-07 10:21 | 53.01355 | 69.46827 | 34000 ft | 403 kts | 237° |
| 2026-05-07 10:22 | 52.98189 | 69.39159 | 33991 ft | 403 kts | 237° |
| 2026-05-07 10:22 | 52.95030 | 69.31560 | 33994 ft | 403 kts | 237° |
| 2026-05-07 10:23 | 52.91850 | 69.23924 | 33993 ft | 403 kts | 237° |
| 2026-05-07 10:23 | 52.88666 | 69.16291 | 34001 ft | 402 kts | 237° |
| 2026-05-07 10:24 | 52.85479 | 69.08676 | 34005 ft | 402 kts | 237° |
| 2026-05-07 10:24 | 52.82293 | 69.01079 | 33996 ft | 402 kts | 237° |
| 2026-05-07 10:25 | 52.79105 | 68.93497 | 34008 ft | 402 kts | 237° |
| 2026-05-07 10:25 | 52.75911 | 68.85939 | 33983 ft | 401 kts | 237° |
| 2026-05-07 10:26 | 52.72710 | 68.78401 | 34000 ft | 401 kts | 237° |
| 2026-05-07 10:26 | 52.69517 | 68.70879 | 33997 ft | 400 kts | 237° |
| 2026-05-07 10:27 | 52.66321 | 68.63371 | 33996 ft | 400 kts | 237° |
| 2026-05-07 10:27 | 52.63122 | 68.55879 | 33991 ft | 400 kts | 237° |
| 2026-05-07 10:28 | 52.59918 | 68.48410 | 33986 ft | 399 kts | 237° |
| 2026-05-07 10:28 | 52.56721 | 68.40968 | 33987 ft | 398 kts | 237° |
| 2026-05-07 10:29 | 52.53517 | 68.33543 | 33982 ft | 398 kts | 237° |
| 2026-05-07 10:29 | 52.50310 | 68.26136 | 33979 ft | 398 kts | 237° |
| 2026-05-07 10:30 | 52.45499 | 68.15050 | 33975 ft | 397 kts | 237° |
| 2026-05-07 10:30 | 52.42289 | 68.07679 | 33975 ft | 397 kts | 237° |
| 2026-05-07 10:31 | 52.39075 | 68.00320 | 33978 ft | 397 kts | 237° |
| 2026-05-07 10:31 | 52.35856 | 67.92973 | 33977 ft | 397 kts | 237° |
| 2026-05-07 10:32 | 52.32634 | 67.85639 | 33971 ft | 397 kts | 237° |
| 2026-05-07 10:32 | 52.29427 | 67.78366 | 33972 ft | 397 kts | 237° |
| 2026-05-07 10:33 | 52.26196 | 67.71049 | 33973 ft | 397 kts | 237° |
| 2026-05-07 10:33 | 52.22936 | 67.63692 | 33965 ft | 397 kts | 237° |
| 2026-05-07 10:34 | 52.19697 | 67.56401 | 33970 ft | 397 kts | 237° |
| 2026-05-07 10:34 | 52.16540 | 67.49100 | 33965 ft | 397 kts | 238° |
| 2026-05-07 10:35 | 52.13420 | 67.41691 | 33964 ft | 397 kts | 238° |
| 2026-05-07 10:35 | 52.10298 | 67.34294 | 33964 ft | 397 kts | 238° |
| 2026-05-07 10:36 | 52.07150 | 67.26920 | 33963 ft | 397 kts | 238° |
| 2026-05-07 10:36 | 52.03987 | 67.19570 | 33962 ft | 397 kts | 238° |
| 2026-05-07 10:37 | 52.00825 | 67.12230 | 33963 ft | 396 kts | 238° |
| 2026-05-07 10:37 | 51.97665 | 67.04915 | 33963 ft | 396 kts | 238° |
| 2026-05-07 10:38 | 51.94497 | 66.97599 | 33965 ft | 396 kts | 238° |
| 2026-05-07 10:38 | 51.91330 | 66.90308 | 33965 ft | 396 kts | 238° |
| 2026-05-07 10:39 | 51.88156 | 66.83029 | 33962 ft | 395 kts | 238° |
| 2026-05-07 10:39 | 51.84986 | 66.75770 | 33964 ft | 395 kts | 238° |
| 2026-05-07 10:40 | 51.81832 | 66.68569 | 33962 ft | 395 kts | 238° |
| 2026-05-07 10:40 | 51.78657 | 66.61327 | 33959 ft | 395 kts | 237° |
| 2026-05-07 10:41 | 51.75478 | 66.54107 | 33959 ft | 394 kts | 237° |
| 2026-05-07 10:41 | 51.72298 | 66.46902 | 33959 ft | 394 kts | 237° |
| 2026-05-07 10:42 | 51.69115 | 66.39716 | 33959 ft | 393 kts | 237° |
| 2026-05-07 10:42 | 51.65931 | 66.32552 | 33955 ft | 393 kts | 237° |
| 2026-05-07 10:43 | 51.62751 | 66.25397 | 33949 ft | 393 kts | 237° |
| 2026-05-07 10:43 | 51.59564 | 66.18268 | 33953 ft | 392 kts | 237° |
| 2026-05-07 10:44 | 51.56375 | 66.11159 | 33952 ft | 392 kts | 237° |
| 2026-05-07 10:44 | 51.53198 | 66.04061 | 33950 ft | 391 kts | 237° |
| 2026-05-07 10:45 | 51.50014 | 65.96978 | 33948 ft | 391 kts | 237° |
| 2026-05-07 10:45 | 51.46826 | 65.89926 | 33950 ft | 391 kts | 237° |
| 2026-05-07 10:46 | 51.43629 | 65.82881 | 33949 ft | 390 kts | 237° |
| 2026-05-07 10:46 | 51.40976 | 65.77037 | 33951 ft | 390 kts | 237° |
| 2026-05-07 10:47 | 51.37780 | 65.70026 | 33949 ft | 390 kts | 237° |
| 2026-05-07 10:47 | 51.34585 | 65.63009 | 33951 ft | 390 kts | 236° |
| 2026-05-07 10:48 | 51.31389 | 65.56006 | 33951 ft | 390 kts | 236° |
| 2026-05-07 10:48 | 51.28189 | 65.49025 | 33950 ft | 389 kts | 236° |
| 2026-05-07 10:49 | 51.24981 | 65.42036 | 33941 ft | 394 kts | 234° |
| 2026-05-07 10:49 | 51.21694 | 65.34899 | 33929 ft | 404 kts | 234° |
| 2026-05-07 10:50 | 51.18317 | 65.27603 | 33931 ft | 413 kts | 234° |
| 2026-05-07 10:50 | 51.14876 | 65.20192 | 33927 ft | 418 kts | 234° |
| 2026-05-07 10:51 | 51.11440 | 65.12807 | 33927 ft | 418 kts | 234° |
| 2026-05-07 10:51 | 51.07970 | 65.05369 | 33925 ft | 418 kts | 234° |
| 2026-05-07 10:52 | 51.04497 | 64.97952 | 33921 ft | 418 kts | 233° |
| 2026-05-07 10:52 | 51.01019 | 64.90540 | 33933 ft | 418 kts | 233° |
| 2026-05-07 10:53 | 50.97544 | 64.83140 | 33932 ft | 418 kts | 233° |
| 2026-05-07 10:53 | 50.94062 | 64.75757 | 33941 ft | 418 kts | 233° |
| 2026-05-07 10:54 | 50.90577 | 64.68402 | 33942 ft | 417 kts | 233° |
| 2026-05-07 10:54 | 50.87094 | 64.61070 | 33936 ft | 416 kts | 233° |
| 2026-05-07 10:55 | 50.83615 | 64.53760 | 33936 ft | 415 kts | 233° |
| 2026-05-07 10:55 | 50.80134 | 64.46479 | 33943 ft | 415 kts | 232° |
| 2026-05-07 10:56 | 50.76653 | 64.39218 | 33937 ft | 414 kts | 232° |
| 2026-05-07 10:56 | 50.73185 | 64.31958 | 33937 ft | 413 kts | 232° |
| 2026-05-07 10:57 | 50.69717 | 64.24731 | 33931 ft | 413 kts | 232° |
| 2026-05-07 10:57 | 50.66245 | 64.17520 | 33931 ft | 413 kts | 232° |
| 2026-05-07 10:58 | 50.62767 | 64.10323 | 33928 ft | 413 kts | 232° |
| 2026-05-07 10:58 | 50.59282 | 64.03149 | 33923 ft | 413 kts | 231° |
| 2026-05-07 10:59 | 50.55791 | 63.95968 | 33924 ft | 413 kts | 231° |
| 2026-05-07 10:59 | 50.52297 | 63.88788 | 33919 ft | 414 kts | 231° |
| 2026-05-07 11:00 | 50.48795 | 63.81611 | 33921 ft | 414 kts | 231° |
| 2026-05-07 11:00 | 50.45286 | 63.74439 | 33921 ft | 414 kts | 231° |
| 2026-05-07 11:01 | 50.41778 | 63.67281 | 33925 ft | 414 kts | 231° |
| 2026-05-07 11:01 | 50.38252 | 63.60126 | 33929 ft | 414 kts | 231° |
| 2026-05-07 11:02 | 50.34729 | 63.52999 | 33926 ft | 414 kts | 230° |
| 2026-05-07 11:02 | 50.31205 | 63.45888 | 33928 ft | 413 kts | 230° |
| 2026-05-07 11:03 | 50.27683 | 63.38790 | 33921 ft | 413 kts | 230° |
| 2026-05-07 11:03 | 50.24158 | 63.31719 | 33922 ft | 412 kts | 230° |
| 2026-05-07 11:04 | 50.20637 | 63.24643 | 33928 ft | 412 kts | 230° |
| 2026-05-07 11:04 | 50.17132 | 63.17638 | 33926 ft | 412 kts | 230° |
| 2026-05-07 11:05 | 50.13600 | 63.10599 | 33926 ft | 412 kts | 230° |
| 2026-05-07 11:05 | 50.10066 | 63.03581 | 33925 ft | 412 kts | 230° |
| 2026-05-07 11:06 | 50.06523 | 62.96577 | 33927 ft | 412 kts | 230° |
| 2026-05-07 11:06 | 50.02632 | 62.90085 | 33929 ft | 411 kts | 222° |
| 2026-05-07 11:07 | 49.98421 | 62.84078 | 33917 ft | 411 kts | 222° |
| 2026-05-07 11:07 | 49.94211 | 62.78079 | 33916 ft | 411 kts | 222° |
| 2026-05-07 11:08 | 49.89994 | 62.72082 | 33916 ft | 411 kts | 222° |
| 2026-05-07 11:08 | 49.85780 | 62.66104 | 33916 ft | 411 kts | 221° |
| 2026-05-07 11:09 | 49.81566 | 62.60130 | 33918 ft | 410 kts | 221° |
| 2026-05-07 11:09 | 49.77348 | 62.54181 | 33918 ft | 410 kts | 221° |
| 2026-05-07 11:10 | 49.73471 | 62.47733 | 33916 ft | 411 kts | 230° |
| 2026-05-07 11:10 | 49.69936 | 62.40872 | 33916 ft | 411 kts | 229° |
| 2026-05-07 11:11 | 49.66354 | 62.33999 | 33918 ft | 411 kts | 229° |
| 2026-05-07 11:11 | 49.62771 | 62.27130 | 33912 ft | 411 kts | 229° |
| 2026-05-07 11:12 | 49.59190 | 62.20266 | 33918 ft | 411 kts | 229° |
| 2026-05-07 11:12 | 49.55609 | 62.13410 | 33916 ft | 411 kts | 229° |
| 2026-05-07 11:13 | 49.52020 | 62.06571 | 33914 ft | 411 kts | 228° |
| 2026-05-07 11:13 | 49.48474 | 61.99825 | 33895 ft | 400 kts | 228° |
| 2026-05-07 11:14 | 49.44973 | 61.93215 | 33895 ft | 398 kts | 228° |
| 2026-05-07 11:14 | 49.41485 | 61.86618 | 33894 ft | 397 kts | 228° |
| 2026-05-07 11:15 | 49.38000 | 61.80038 | 33895 ft | 397 kts | 228° |
| 2026-05-07 11:15 | 49.34505 | 61.73464 | 33901 ft | 397 kts | 227° |
| 2026-05-07 11:16 | 49.31005 | 61.66903 | 33906 ft | 398 kts | 227° |
| 2026-05-07 11:16 | 49.27498 | 61.60342 | 33908 ft | 398 kts | 227° |
| 2026-05-07 11:17 | 49.23982 | 61.53774 | 33909 ft | 399 kts | 227° |
| 2026-05-07 11:17 | 49.20457 | 61.47205 | 33907 ft | 399 kts | 227° |
| 2026-05-07 11:18 | 49.16927 | 61.40642 | 33912 ft | 400 kts | 227° |
| 2026-05-07 11:18 | 49.13383 | 61.34078 | 33912 ft | 400 kts | 227° |
| 2026-05-07 11:19 | 49.09839 | 61.27513 | 33912 ft | 401 kts | 227° |
| 2026-05-07 11:19 | 49.06276 | 61.20947 | 33913 ft | 402 kts | 227° |
| 2026-05-07 11:20 | 49.02704 | 61.14373 | 33910 ft | 403 kts | 227° |
| 2026-05-07 11:20 | 48.99123 | 61.07787 | 33899 ft | 404 kts | 227° |
| 2026-05-07 11:21 | 48.95524 | 61.01211 | 33901 ft | 405 kts | 227° |
| 2026-05-07 11:21 | 48.91910 | 60.94627 | 33903 ft | 406 kts | 227° |
| 2026-05-07 11:22 | 48.88287 | 60.88028 | 33903 ft | 407 kts | 227° |
| 2026-05-07 11:22 | 48.84687 | 60.81481 | 33914 ft | 407 kts | 227° |
| 2026-05-07 11:23 | 48.81060 | 60.74902 | 33916 ft | 407 kts | 227° |
| 2026-05-07 11:23 | 48.77431 | 60.68323 | 33907 ft | 406 kts | 227° |
| 2026-05-07 11:24 | 48.73799 | 60.61778 | 33904 ft | 405 kts | 227° |
| 2026-05-07 11:24 | 48.70161 | 60.55249 | 33905 ft | 405 kts | 227° |
| 2026-05-07 11:25 | 48.66531 | 60.48734 | 33903 ft | 405 kts | 227° |
| 2026-05-07 11:25 | 48.62905 | 60.42229 | 33904 ft | 404 kts | 227° |
| 2026-05-07 11:26 | 48.59278 | 60.35746 | 33904 ft | 404 kts | 227° |
| 2026-05-07 11:26 | 48.55653 | 60.29282 | 33897 ft | 403 kts | 227° |
| 2026-05-07 11:27 | 48.52031 | 60.22837 | 33893 ft | 403 kts | 228° |
| 2026-05-07 11:27 | 48.48402 | 60.16404 | 33889 ft | 402 kts | 228° |
| 2026-05-07 11:28 | 48.44773 | 60.09986 | 33891 ft | 402 kts | 228° |
| 2026-05-07 11:28 | 48.41187 | 60.03679 | 33889 ft | 402 kts | 228° |
| 2026-05-07 11:29 | 48.37553 | 59.97281 | 33888 ft | 402 kts | 228° |
| 2026-05-07 11:29 | 48.33949 | 59.90934 | 33881 ft | 402 kts | 228° |
| 2026-05-07 11:30 | 48.30315 | 59.84545 | 33885 ft | 402 kts | 228° |
| 2026-05-07 11:30 | 48.26674 | 59.78174 | 33882 ft | 402 kts | 228° |
| 2026-05-07 11:31 | 48.23023 | 59.71818 | 33881 ft | 402 kts | 228° |
| 2026-05-07 11:31 | 48.19368 | 59.65481 | 33879 ft | 402 kts | 228° |
| 2026-05-07 11:32 | 48.13883 | 59.55976 | 33879 ft | 402 kts | 228° |
| 2026-05-07 11:33 | 48.10227 | 59.49662 | 33882 ft | 401 kts | 228° |
| 2026-05-07 11:33 | 48.06577 | 59.43356 | 33887 ft | 401 kts | 228° |
| 2026-05-07 11:34 | 48.02924 | 59.37071 | 33891 ft | 400 kts | 228° |
| 2026-05-07 11:34 | 47.99278 | 59.30811 | 33889 ft | 399 kts | 228° |
| 2026-05-07 11:35 | 47.95632 | 59.24565 | 33893 ft | 399 kts | 228° |
| 2026-05-07 11:35 | 47.92609 | 59.19385 | 33891 ft | 398 kts | 228° |
| 2026-05-07 11:36 | 47.88973 | 59.13167 | 33892 ft | 398 kts | 228° |
| 2026-05-07 11:36 | 47.85331 | 59.06974 | 33892 ft | 397 kts | 228° |
| 2026-05-07 11:37 | 47.81684 | 59.00789 | 33883 ft | 397 kts | 228° |
| 2026-05-07 11:37 | 47.77990 | 58.94532 | 33870 ft | 407 kts | 227° |
| 2026-05-07 11:38 | 47.74238 | 58.88201 | 33869 ft | 409 kts | 227° |
| 2026-05-07 11:38 | 47.70478 | 58.81864 | 33876 ft | 409 kts | 227° |
| 2026-05-07 11:39 | 47.66720 | 58.75524 | 33880 ft | 409 kts | 227° |
| 2026-05-07 11:39 | 47.62953 | 58.69207 | 33886 ft | 409 kts | 227° |
| 2026-05-07 11:40 | 47.59208 | 58.62935 | 33896 ft | 410 kts | 227° |
| 2026-05-07 11:40 | 47.55422 | 58.56618 | 33905 ft | 410 kts | 227° |
| 2026-05-07 11:41 | 47.51631 | 58.50310 | 33906 ft | 410 kts | 227° |
| 2026-05-07 11:41 | 47.47840 | 58.44006 | 33910 ft | 410 kts | 227° |
| 2026-05-07 11:42 | 47.44047 | 58.37706 | 33913 ft | 410 kts | 227° |
| 2026-05-07 11:42 | 47.40246 | 58.31419 | 33919 ft | 410 kts | 227° |
| 2026-05-07 11:43 | 47.36446 | 58.25144 | 33920 ft | 410 kts | 227° |
| 2026-05-07 11:43 | 47.32638 | 58.18882 | 33925 ft | 410 kts | 227° |
| 2026-05-07 11:44 | 47.28823 | 58.12634 | 33924 ft | 410 kts | 227° |
| 2026-05-07 11:44 | 47.24981 | 58.06457 | 33922 ft | 409 kts | 226° |
| 2026-05-07 11:45 | 47.21112 | 58.00296 | 33926 ft | 409 kts | 226° |
| 2026-05-07 11:45 | 47.17241 | 57.94153 | 33929 ft | 409 kts | 226° |
| 2026-05-07 11:46 | 47.13380 | 57.88011 | 33931 ft | 409 kts | 226° |
| 2026-05-07 11:46 | 47.09515 | 57.81877 | 33927 ft | 409 kts | 226° |
| 2026-05-07 11:47 | 47.05648 | 57.75758 | 33925 ft | 409 kts | 226° |
| 2026-05-07 11:47 | 47.01785 | 57.69653 | 33923 ft | 409 kts | 226° |
| 2026-05-07 11:48 | 46.97917 | 57.63548 | 33926 ft | 408 kts | 226° |
| 2026-05-07 11:48 | 46.94047 | 57.57461 | 33925 ft | 408 kts | 226° |
| 2026-05-07 11:49 | 46.90174 | 57.51380 | 33924 ft | 409 kts | 226° |
| 2026-05-07 11:49 | 46.86297 | 57.45300 | 33925 ft | 409 kts | 226° |
| 2026-05-07 11:50 | 46.82416 | 57.39238 | 33925 ft | 409 kts | 226° |
| 2026-05-07 11:50 | 46.78552 | 57.33230 | 33924 ft | 409 kts | 226° |
| 2026-05-07 11:51 | 46.74662 | 57.27182 | 33928 ft | 409 kts | 226° |
| 2026-05-07 11:51 | 46.70769 | 57.21140 | 33925 ft | 409 kts | 226° |
| 2026-05-07 11:52 | 46.66873 | 57.15106 | 33932 ft | 409 kts | 226° |
| 2026-05-07 11:52 | 46.62969 | 57.09081 | 33931 ft | 409 kts | 226° |
| 2026-05-07 11:53 | 46.59066 | 57.03072 | 33936 ft | 409 kts | 226° |
| 2026-05-07 11:53 | 46.55161 | 56.97068 | 33938 ft | 409 kts | 226° |
| 2026-05-07 11:54 | 46.51255 | 56.91076 | 33937 ft | 408 kts | 226° |
| 2026-05-07 11:54 | 46.47268 | 56.85219 | 33934 ft | 408 kts | 221° |
| 2026-05-07 11:55 | 46.42965 | 56.79864 | 33939 ft | 408 kts | 221° |
| 2026-05-07 11:55 | 46.38650 | 56.74521 | 33933 ft | 407 kts | 221° |
| 2026-05-07 11:56 | 46.34345 | 56.69198 | 33934 ft | 407 kts | 221° |
| 2026-05-07 11:56 | 46.30040 | 56.63869 | 33937 ft | 407 kts | 221° |
| 2026-05-07 11:57 | 46.25763 | 56.58590 | 33940 ft | 407 kts | 221° |
| 2026-05-07 11:57 | 46.21453 | 56.53282 | 33940 ft | 407 kts | 221° |
| 2026-05-07 11:58 | 46.17140 | 56.47983 | 33945 ft | 407 kts | 221° |
| 2026-05-07 11:58 | 46.12818 | 56.42697 | 33945 ft | 408 kts | 221° |
| 2026-05-07 11:59 | 46.08485 | 56.37402 | 33949 ft | 408 kts | 221° |
| 2026-05-07 11:59 | 46.04153 | 56.32111 | 33948 ft | 408 kts | 221° |
| 2026-05-07 12:00 | 45.99823 | 56.26829 | 33949 ft | 408 kts | 221° |
| 2026-05-07 12:00 | 45.95486 | 56.21556 | 33949 ft | 408 kts | 221° |
| 2026-05-07 12:01 | 45.91147 | 56.16298 | 33948 ft | 408 kts | 221° |
| 2026-05-07 12:01 | 45.86813 | 56.11045 | 33948 ft | 408 kts | 221° |
| 2026-05-07 12:02 | 45.82479 | 56.05803 | 33952 ft | 407 kts | 221° |
| 2026-05-07 12:02 | 45.78144 | 56.00578 | 33960 ft | 407 kts | 221° |
| 2026-05-07 12:03 | 45.73807 | 55.95366 | 33958 ft | 407 kts | 221° |
| 2026-05-07 12:03 | 45.69459 | 55.90155 | 33961 ft | 407 kts | 221° |
| 2026-05-07 12:04 | 45.65114 | 55.84958 | 33967 ft | 407 kts | 221° |
| 2026-05-07 12:04 | 45.60776 | 55.79763 | 33964 ft | 407 kts | 221° |
| 2026-05-07 12:05 | 45.56435 | 55.74579 | 33959 ft | 407 kts | 221° |
| 2026-05-07 12:05 | 45.52093 | 55.69410 | 33964 ft | 406 kts | 221° |
| 2026-05-07 12:06 | 45.47749 | 55.64253 | 33970 ft | 406 kts | 221° |
| 2026-05-07 12:06 | 45.43406 | 55.59108 | 33969 ft | 406 kts | 221° |
| 2026-05-07 12:07 | 45.39085 | 55.54005 | 33973 ft | 406 kts | 221° |
| 2026-05-07 12:07 | 45.34709 | 55.48833 | 33973 ft | 406 kts | 221° |
| 2026-05-07 12:08 | 45.30391 | 55.43742 | 33971 ft | 406 kts | 221° |
| 2026-05-07 12:08 | 45.26042 | 55.38631 | 33973 ft | 406 kts | 221° |
| 2026-05-07 12:09 | 45.21687 | 55.33524 | 33976 ft | 406 kts | 221° |
| 2026-05-07 12:09 | 45.17339 | 55.28435 | 33977 ft | 406 kts | 221° |
| 2026-05-07 12:10 | 45.12989 | 55.23346 | 33977 ft | 406 kts | 221° |
| 2026-05-07 12:10 | 45.08635 | 55.18264 | 33977 ft | 406 kts | 221° |
| 2026-05-07 12:11 | 45.04514 | 55.13142 | 33982 ft | 405 kts | 224° |
| 2026-05-07 12:11 | 45.00409 | 55.07688 | 33979 ft | 405 kts | 225° |
| 2026-05-07 12:12 | 44.96303 | 55.02247 | 33980 ft | 405 kts | 224° |
| 2026-05-07 12:12 | 44.92161 | 54.96871 | 33979 ft | 404 kts | 224° |
| 2026-05-07 12:13 | 44.88001 | 54.91531 | 33982 ft | 404 kts | 224° |
| 2026-05-07 12:13 | 44.83849 | 54.86207 | 33981 ft | 403 kts | 224° |
| 2026-05-07 12:14 | 44.79707 | 54.80883 | 33983 ft | 403 kts | 224° |
| 2026-05-07 12:14 | 44.75563 | 54.75562 | 33985 ft | 403 kts | 224° |
| 2026-05-07 12:15 | 44.71420 | 54.70256 | 33988 ft | 403 kts | 224° |
| 2026-05-07 12:15 | 44.67270 | 54.64961 | 33989 ft | 403 kts | 224° |
| 2026-05-07 12:16 | 44.63124 | 54.59670 | 33991 ft | 402 kts | 224° |
| 2026-05-07 12:16 | 44.58979 | 54.54390 | 33990 ft | 402 kts | 224° |
| 2026-05-07 12:17 | 44.54833 | 54.49120 | 33994 ft | 402 kts | 224° |
| 2026-05-07 12:17 | 44.50689 | 54.43864 | 33994 ft | 402 kts | 224° |
| 2026-05-07 12:18 | 44.46640 | 54.38753 | 33995 ft | 401 kts | 224° |
| 2026-05-07 12:18 | 44.42515 | 54.33566 | 34004 ft | 401 kts | 224° |
| 2026-05-07 12:19 | 44.38369 | 54.28345 | 34008 ft | 401 kts | 224° |
| 2026-05-07 12:19 | 44.34227 | 54.23127 | 34005 ft | 401 kts | 224° |
| 2026-05-07 12:20 | 44.30085 | 54.17927 | 34011 ft | 400 kts | 224° |
| 2026-05-07 12:20 | 44.25943 | 54.12738 | 34010 ft | 400 kts | 224° |
| 2026-05-07 12:21 | 44.21796 | 54.07563 | 34012 ft | 400 kts | 224° |
| 2026-05-07 12:21 | 44.17660 | 54.02385 | 34014 ft | 400 kts | 224° |
| 2026-05-07 12:22 | 44.13520 | 53.97220 | 34013 ft | 400 kts | 224° |
| 2026-05-07 12:22 | 44.09374 | 53.92073 | 34018 ft | 399 kts | 224° |
| 2026-05-07 12:23 | 44.05224 | 53.86935 | 34021 ft | 399 kts | 224° |
| 2026-05-07 12:23 | 44.01081 | 53.81795 | 34022 ft | 399 kts | 224° |
| 2026-05-07 12:24 | 43.97607 | 53.77498 | 34022 ft | 399 kts | 224° |
| 2026-05-07 12:24 | 43.93480 | 53.72408 | 34021 ft | 399 kts | 224° |
| 2026-05-07 12:25 | 43.89292 | 53.67260 | 34023 ft | 400 kts | 224° |
| 2026-05-07 12:25 | 43.85129 | 53.62159 | 34024 ft | 400 kts | 224° |
| 2026-05-07 12:26 | 43.80997 | 53.57096 | 34021 ft | 400 kts | 224° |
| 2026-05-07 12:26 | 43.76829 | 53.51997 | 34027 ft | 400 kts | 224° |
| 2026-05-07 12:27 | 43.72666 | 53.46908 | 34032 ft | 400 kts | 224° |
| 2026-05-07 12:27 | 43.68497 | 53.41816 | 34034 ft | 400 kts | 223° |
| 2026-05-07 12:28 | 43.64329 | 53.36746 | 34039 ft | 399 kts | 223° |
| 2026-05-07 12:28 | 43.60159 | 53.31688 | 34042 ft | 399 kts | 223° |
| 2026-05-07 12:29 | 43.55990 | 53.26643 | 34056 ft | 398 kts | 223° |
| 2026-05-07 12:29 | 43.51828 | 53.21607 | 34049 ft | 398 kts | 223° |
| 2026-05-07 12:30 | 43.47668 | 53.16580 | 34049 ft | 398 kts | 223° |
| 2026-05-07 12:30 | 43.43505 | 53.11571 | 34051 ft | 397 kts | 223° |
| 2026-05-07 12:31 | 43.39348 | 53.06571 | 34060 ft | 397 kts | 223° |
| 2026-05-07 12:31 | 43.35188 | 53.01578 | 34053 ft | 397 kts | 223° |
| 2026-05-07 12:32 | 43.31029 | 52.96600 | 34060 ft | 397 kts | 223° |
| 2026-05-07 12:32 | 43.26868 | 52.91634 | 34066 ft | 396 kts | 223° |
| 2026-05-07 12:33 | 43.20659 | 52.84215 | 34062 ft | 396 kts | 223° |
| 2026-05-07 12:33 | 43.16501 | 52.79264 | 34064 ft | 396 kts | 223° |
| 2026-05-07 12:34 | 43.12335 | 52.74327 | 34072 ft | 396 kts | 223° |
| 2026-05-07 12:34 | 43.08169 | 52.69396 | 34068 ft | 396 kts | 223° |
| 2026-05-07 12:35 | 43.04007 | 52.64476 | 34078 ft | 396 kts | 223° |
| 2026-05-07 12:35 | 42.99837 | 52.59544 | 34085 ft | 396 kts | 223° |
| 2026-05-07 12:36 | 42.95671 | 52.54636 | 34080 ft | 396 kts | 223° |
| 2026-05-07 12:36 | 42.91505 | 52.49721 | 34086 ft | 396 kts | 223° |
| 2026-05-07 12:37 | 42.87337 | 52.44817 | 34087 ft | 396 kts | 223° |
| 2026-05-07 12:37 | 42.83163 | 52.39930 | 34090 ft | 396 kts | 223° |
| 2026-05-07 12:38 | 42.78992 | 52.35048 | 34089 ft | 395 kts | 223° |
| 2026-05-07 12:38 | 42.74816 | 52.30180 | 34097 ft | 395 kts | 223° |
| 2026-05-07 12:39 | 42.70642 | 52.25318 | 34100 ft | 395 kts | 223° |
| 2026-05-07 12:39 | 42.66470 | 52.20457 | 34098 ft | 395 kts | 223° |
| 2026-05-07 12:40 | 42.62301 | 52.15600 | 34105 ft | 395 kts | 223° |
| 2026-05-07 12:40 | 42.58122 | 52.10762 | 34101 ft | 395 kts | 223° |
| 2026-05-07 12:41 | 42.53972 | 52.05966 | 34098 ft | 394 kts | 223° |
| 2026-05-07 12:41 | 42.49799 | 52.01143 | 34098 ft | 394 kts | 223° |
| 2026-05-07 12:42 | 42.45632 | 51.96330 | 34098 ft | 394 kts | 223° |
| 2026-05-07 12:42 | 42.41455 | 51.91526 | 34103 ft | 394 kts | 223° |
| 2026-05-07 12:43 | 42.37277 | 51.86733 | 34102 ft | 394 kts | 223° |
| 2026-05-07 12:43 | 42.33098 | 51.81942 | 34105 ft | 394 kts | 223° |
| 2026-05-07 12:44 | 42.28924 | 51.77161 | 34107 ft | 393 kts | 223° |
| 2026-05-07 12:44 | 42.24750 | 51.72389 | 34110 ft | 393 kts | 223° |
| 2026-05-07 12:45 | 42.20578 | 51.67627 | 34109 ft | 393 kts | 223° |
| 2026-05-07 12:45 | 42.16406 | 51.62873 | 34111 ft | 392 kts | 223° |
| 2026-05-07 12:46 | 42.12234 | 51.58137 | 34110 ft | 392 kts | 223° |
| 2026-05-07 12:46 | 42.08066 | 51.53403 | 34113 ft | 392 kts | 223° |
| 2026-05-07 12:47 | 42.03892 | 51.48675 | 34113 ft | 392 kts | 223° |
| 2026-05-07 12:47 | 41.99910 | 51.43705 | 33826 ft | 390 kts | 228° |
| 2026-05-07 12:48 | 41.98044 | 51.41074 | 32583 ft | 388 kts | 228° |
| 2026-05-07 12:48 | 41.96194 | 51.38457 | 31414 ft | 384 kts | 228° |
| 2026-05-07 12:48 | 41.94363 | 51.35859 | 30529 ft | 382 kts | 228° |
| 2026-05-07 12:48 | 41.92552 | 51.33290 | 30107 ft | 376 kts | 228° |
| 2026-05-07 12:49 | 41.90771 | 51.30764 | 29669 ft | 369 kts | 228° |
| 2026-05-07 12:49 | 41.89022 | 51.28288 | 29272 ft | 362 kts | 228° |
| 2026-05-07 12:49 | 41.87303 | 51.25870 | 28880 ft | 355 kts | 227° |
| 2026-05-07 12:49 | 41.85614 | 51.23503 | 28513 ft | 348 kts | 227° |
| 2026-05-07 12:50 | 41.83959 | 51.21181 | 28147 ft | 341 kts | 227° |
| 2026-05-07 12:50 | 41.82332 | 51.18899 | 27790 ft | 335 kts | 227° |
| 2026-05-07 12:50 | 41.80737 | 51.16662 | 27463 ft | 329 kts | 227° |
| 2026-05-07 12:50 | 41.79192 | 51.14494 | 27128 ft | 323 kts | 227° |
| 2026-05-07 12:51 | 41.77634 | 51.12309 | 26797 ft | 317 kts | 227° |
| 2026-05-07 12:51 | 41.76146 | 51.10223 | 26488 ft | 311 kts | 227° |
| 2026-05-07 12:51 | 41.74652 | 51.08130 | 26176 ft | 311 kts | 227° |
| 2026-05-07 12:51 | 41.73159 | 51.06039 | 25855 ft | 310 kts | 227° |
| 2026-05-07 12:52 | 41.71667 | 51.03954 | 25526 ft | 310 kts | 227° |
| 2026-05-07 12:52 | 41.70182 | 51.01875 | 25207 ft | 309 kts | 227° |
| 2026-05-07 12:52 | 41.68696 | 50.99798 | 24874 ft | 308 kts | 227° |
| 2026-05-07 12:52 | 41.67213 | 50.97735 | 24547 ft | 308 kts | 227° |
| 2026-05-07 12:53 | 41.65730 | 50.95677 | 24219 ft | 307 kts | 227° |
| 2026-05-07 12:53 | 41.64253 | 50.93622 | 23868 ft | 306 kts | 227° |
| 2026-05-07 12:53 | 41.62779 | 50.91567 | 23499 ft | 306 kts | 227° |
| 2026-05-07 12:53 | 41.61310 | 50.89524 | 23132 ft | 305 kts | 227° |
| 2026-05-07 12:54 | 41.59841 | 50.87486 | 22785 ft | 303 kts | 227° |
| 2026-05-07 12:54 | 41.58382 | 50.85464 | 22431 ft | 302 kts | 227° |
| 2026-05-07 12:54 | 41.56927 | 50.83449 | 22077 ft | 300 kts | 227° |
| 2026-05-07 12:54 | 41.55481 | 50.81449 | 21724 ft | 299 kts | 227° |
| 2026-05-07 12:55 | 41.54037 | 50.79451 | 21387 ft | 298 kts | 227° |
| 2026-05-07 12:55 | 41.52604 | 50.77466 | 21030 ft | 297 kts | 227° |
| 2026-05-07 12:55 | 41.51176 | 50.75485 | 20673 ft | 295 kts | 227° |
| 2026-05-07 12:55 | 41.49757 | 50.73516 | 20340 ft | 294 kts | 227° |
| 2026-05-07 12:56 | 41.48342 | 50.71553 | 19989 ft | 293 kts | 227° |
| 2026-05-07 12:56 | 41.46933 | 50.69605 | 19633 ft | 291 kts | 226° |
| 2026-05-07 12:56 | 41.45528 | 50.67666 | 19294 ft | 290 kts | 226° |
| 2026-05-07 12:56 | 41.44128 | 50.65737 | 18952 ft | 289 kts | 226° |
| 2026-05-07 12:57 | 41.42733 | 50.63819 | 18617 ft | 287 kts | 226° |
| 2026-05-07 12:57 | 41.41344 | 50.61911 | 18261 ft | 286 kts | 226° |
| 2026-05-07 12:57 | 41.39962 | 50.60016 | 17900 ft | 285 kts | 226° |
| 2026-05-07 12:57 | 41.38585 | 50.58127 | 17550 ft | 283 kts | 226° |
| 2026-05-07 12:58 | 41.37215 | 50.56246 | 17223 ft | 282 kts | 226° |
| 2026-05-07 12:58 | 41.35852 | 50.54374 | 16884 ft | 281 kts | 226° |
| 2026-05-07 12:58 | 41.34515 | 50.52535 | 16551 ft | 279 kts | 226° |
| 2026-05-07 12:58 | 41.33168 | 50.50682 | 16202 ft | 278 kts | 226° |
| 2026-05-07 12:59 | 41.31824 | 50.48835 | 15885 ft | 277 kts | 226° |
| 2026-05-07 12:59 | 41.30487 | 50.47001 | 15553 ft | 276 kts | 226° |
| 2026-05-07 12:59 | 41.29152 | 50.45171 | 15222 ft | 275 kts | 226° |
| 2026-05-07 12:59 | 41.27821 | 50.43352 | 14885 ft | 274 kts | 226° |
| 2026-05-07 13:00 | 41.26496 | 50.41543 | 14571 ft | 273 kts | 226° |
| 2026-05-07 13:00 | 41.25176 | 50.39741 | 14243 ft | 272 kts | 226° |
| 2026-05-07 13:00 | 41.23860 | 50.37943 | 13922 ft | 271 kts | 226° |
| 2026-05-07 13:00 | 41.22547 | 50.36149 | 13573 ft | 270 kts | 226° |
| 2026-05-07 13:01 | 41.21237 | 50.34358 | 13250 ft | 270 kts | 226° |
| 2026-05-07 13:01 | 41.19930 | 50.32578 | 12933 ft | 269 kts | 226° |
| 2026-05-07 13:01 | 41.18623 | 50.30799 | 12608 ft | 269 kts | 226° |
| 2026-05-07 13:01 | 41.17322 | 50.29026 | 12292 ft | 268 kts | 226° |
| 2026-05-07 13:02 | 41.16021 | 50.27255 | 11968 ft | 267 kts | 226° |
| 2026-05-07 13:02 | 41.14725 | 50.25491 | 11638 ft | 267 kts | 226° |
| 2026-05-07 13:02 | 41.13431 | 50.23729 | 11328 ft | 266 kts | 226° |
| 2026-05-07 13:02 | 41.12094 | 50.22036 | 11002 ft | 265 kts | 219° |
| 2026-05-07 13:03 | 41.10620 | 50.20495 | 10706 ft | 275 kts | 219° |
| 2026-05-07 13:03 | 41.09110 | 50.18914 | 10406 ft | 277 kts | 219° |
| 2026-05-07 13:03 | 41.07598 | 50.17331 | 10094 ft | 277 kts | 219° |
| 2026-05-07 13:03 | 41.06084 | 50.15749 | 9762 ft | 277 kts | 219° |
| 2026-05-07 13:04 | 41.04577 | 50.14176 | 9448 ft | 276 kts | 219° |
| 2026-05-07 13:04 | 41.03073 | 50.12605 | 9129 ft | 275 kts | 219° |
| 2026-05-07 13:04 | 41.01571 | 50.11036 | 8829 ft | 274 kts | 219° |
| 2026-05-07 13:04 | 41.00073 | 50.09472 | 8474 ft | 274 kts | 219° |
| 2026-05-07 13:05 | 40.98583 | 50.07917 | 8144 ft | 272 kts | 219° |
| 2026-05-07 13:05 | 40.97099 | 50.06370 | 7831 ft | 271 kts | 220° |
| 2026-05-07 13:05 | 40.95665 | 50.04754 | 7530 ft | 270 kts | 223° |
| 2026-05-07 13:05 | 40.94284 | 50.03079 | 7228 ft | 269 kts | 224° |
| 2026-05-07 13:06 | 40.92920 | 50.01384 | 6922 ft | 269 kts | 224° |
| 2026-05-07 13:06 | 40.91562 | 49.99695 | 6623 ft | 268 kts | 224° |
| 2026-05-07 13:06 | 40.90198 | 49.98020 | 6307 ft | 267 kts | 221° |
| 2026-05-07 13:06 | 40.88627 | 49.96726 | 5985 ft | 267 kts | 204° |
| 2026-05-07 13:07 | 40.86833 | 49.96116 | 5684 ft | 268 kts | 186° |
| 2026-05-07 13:07 | 40.84968 | 49.96084 | 5382 ft | 268 kts | 181° |
| 2026-05-07 13:07 | 40.83113 | 49.96094 | 5066 ft | 266 kts | 181° |
| 2026-05-07 13:07 | 40.81266 | 49.96098 | 4768 ft | 264 kts | 181° |
| 2026-05-07 13:08 | 40.79428 | 49.96099 | 4455 ft | 264 kts | 180° |
| 2026-05-07 13:08 | 40.77594 | 49.96100 | 4124 ft | 264 kts | 180° |
| 2026-05-07 13:08 | 40.75758 | 49.96100 | 3800 ft | 263 kts | 180° |
| 2026-05-07 13:08 | 40.73922 | 49.96100 | 3357 ft | 267 kts | 180° |
| 2026-05-07 13:09 | 40.72034 | 49.96112 | 2776 ft | 273 kts | 176° |
| 2026-05-07 13:09 | 40.70190 | 49.96414 | 2650 ft | 260 kts | 168° |
| 2026-05-07 13:09 | 40.68475 | 49.96912 | 2583 ft | 246 kts | 165° |
| 2026-05-07 13:09 | 40.66909 | 49.97416 | 2563 ft | 229 kts | 165° |
| 2026-05-07 13:10 | 40.65355 | 49.97913 | 2499 ft | 219 kts | 165° |
| 2026-05-07 13:10 | 40.63911 | 49.98370 | 2455 ft | 204 kts | 165° |
| 2026-05-07 13:10 | 40.62603 | 49.98782 | 2421 ft | 183 kts | 165° |
| 2026-05-07 13:10 | 40.61448 | 49.99146 | 2365 ft | 161 kts | 164° |
| 2026-05-07 13:11 | 40.60738 | 49.99370 | 2284 ft | 155 kts | 164° |
| 2026-05-07 13:11 | 40.59706 | 49.99697 | 2131 ft | 150 kts | 164° |
| 2026-05-07 13:11 | 40.58698 | 50.00016 | 1944 ft | 148 kts | 164° |
| 2026-05-07 13:11 | 40.57701 | 50.00330 | 1760 ft | 146 kts | 164° |
| 2026-05-07 13:12 | 40.56713 | 50.00642 | 1560 ft | 146 kts | 163° |
| 2026-05-07 13:12 | 40.55725 | 50.00953 | 1365 ft | 146 kts | 163° |
| 2026-05-07 13:12 | 40.54738 | 50.01264 | 1170 ft | 145 kts | 165° |
| 2026-05-07 13:12 | 40.53764 | 50.01570 | 978 ft | 143 kts | 165° |
| 2026-05-07 13:13 | 40.52805 | 50.01876 | 790 ft | 141 kts | 165° |
| 2026-05-07 13:13 | 40.51856 | 50.02185 | 618 ft | 140 kts | 166° |
| 2026-05-07 13:13 | 40.50902 | 50.02483 | 416 ft | 141 kts | 167° |
| 2026-05-07 13:13 | 40.49954 | 50.02785 | 232 ft | 139 kts | 166° |
| 2026-05-07 13:14 | 40.49013 | 50.03075 | 107 ft | 138 kts | 168° |
| 2026-05-07 13:14 | 40.48027 | 50.03360 | 530 ft | 156 kts | 166° |
| 2026-05-07 13:14 | 40.46873 | 50.03705 | 919 ft | 184 kts | 167° |
| 2026-05-07 13:14 | 40.45530 | 50.04052 | 1120 ft | 199 kts | 167° |
| 2026-05-07 13:15 | 40.44294 | 50.04390 | 1208 ft | 168 kts | 166° |
| 2026-05-07 13:15 | 40.43145 | 50.04716 | 684 ft | 175 kts | 167° |
| 2026-05-07 13:15 | 40.41907 | 50.05118 | 479 ft | 200 kts | 165° |
| 2026-05-07 13:15 | 40.40466 | 50.05618 | 888 ft | 233 kts | 165° |
| 2026-05-07 13:16 | 40.38766 | 50.06157 | 1140 ft | 268 kts | 166° |
| 2026-05-07 13:16 | 40.36891 | 50.06732 | 1394 ft | 270 kts | 166° |
| 2026-05-07 13:16 | 40.35187 | 50.07246 | 1633 ft | 233 kts | 166° |
| 2026-05-07 13:16 | 40.33750 | 50.07666 | 1856 ft | 196 kts | 166° |
| 2026-05-07 13:17 | 40.32403 | 50.08061 | 2033 ft | 212 kts | 166° |
| 2026-05-07 13:17 | 40.30947 | 50.08499 | 2065 ft | 213 kts | 165° |
| 2026-05-07 13:17 | 40.29448 | 50.08938 | 2031 ft | 226 kts | 166° |
| 2026-05-07 13:17 | 40.27920 | 50.09395 | 2013 ft | 230 kts | 166° |
| 2026-05-07 13:18 | 40.26373 | 50.09937 | 2012 ft | 230 kts | 154° |
| 2026-05-07 13:18 | 40.25099 | 50.11155 | 2010 ft | 227 kts | 127° |
| 2026-05-07 13:18 | 40.24411 | 50.12981 | 2014 ft | 226 kts | 100° |
| 2026-05-07 13:18 | 40.24447 | 50.15017 | 2013 ft | 225 kts | 73° |
| 2026-05-07 13:19 | 40.25200 | 50.16797 | 2012 ft | 226 kts | 46° |
| 2026-05-07 13:19 | 40.26503 | 50.17928 | 2012 ft | 228 kts | 19° |
| 2026-05-07 13:19 | 40.28077 | 50.18198 | 2006 ft | 230 kts | 2° |
| 2026-05-07 13:19 | 40.29684 | 50.18258 | 2010 ft | 231 kts | 2° |
| 2026-05-07 13:20 | 40.31289 | 50.18332 | 2010 ft | 232 kts | 3° |
| 2026-05-07 13:20 | 40.32902 | 50.18413 | 2011 ft | 232 kts | 3° |
| 2026-05-07 13:20 | 40.34510 | 50.18496 | 2012 ft | 232 kts | 3° |
| 2026-05-07 13:20 | 40.36119 | 50.18328 | 2005 ft | 233 kts | 353° |
| 2026-05-07 13:21 | 40.37717 | 50.18022 | 2007 ft | 232 kts | 353° |
| 2026-05-07 13:21 | 40.39316 | 50.17706 | 2062 ft | 232 kts | 353° |
| 2026-05-07 13:21 | 40.40918 | 50.17386 | 2318 ft | 234 kts | 353° |
| 2026-05-07 13:21 | 40.42525 | 50.17067 | 2568 ft | 234 kts | 352° |
| 2026-05-07 13:22 | 40.44135 | 50.16749 | 2823 ft | 235 kts | 353° |
| 2026-05-07 13:22 | 40.45756 | 50.16430 | 2959 ft | 234 kts | 353° |
| 2026-05-07 13:22 | 40.47369 | 50.16111 | 3002 ft | 234 kts | 353° |
| 2026-05-07 13:22 | 40.48979 | 50.15792 | 3005 ft | 234 kts | 353° |
| 2026-05-07 13:23 | 40.50588 | 50.15473 | 3011 ft | 234 kts | 353° |
| 2026-05-07 13:23 | 40.52196 | 50.15154 | 3013 ft | 233 kts | 353° |
| 2026-05-07 13:23 | 40.53798 | 50.14839 | 3014 ft | 233 kts | 353° |
| 2026-05-07 13:23 | 40.55402 | 50.14524 | 3012 ft | 233 kts | 353° |
| 2026-05-07 13:24 | 40.56985 | 50.14211 | 3010 ft | 233 kts | 353° |
| 2026-05-07 13:24 | 40.58610 | 50.13887 | 3005 ft | 233 kts | 353° |
| 2026-05-07 13:24 | 40.60193 | 50.13573 | 3012 ft | 233 kts | 353° |
| 2026-05-07 13:24 | 40.61797 | 50.13256 | 3009 ft | 233 kts | 352° |
| 2026-05-07 13:25 | 40.63402 | 50.12938 | 3007 ft | 233 kts | 353° |
| 2026-05-07 13:25 | 40.65010 | 50.12619 | 3010 ft | 234 kts | 352° |
| 2026-05-07 13:25 | 40.66619 | 50.12299 | 3009 ft | 234 kts | 352° |
| 2026-05-07 13:25 | 40.68227 | 50.11980 | 3011 ft | 234 kts | 352° |
| 2026-05-07 13:26 | 40.69834 | 50.11661 | 3008 ft | 234 kts | 352° |
| 2026-05-07 13:26 | 40.71439 | 50.11342 | 3012 ft | 233 kts | 351° |
| 2026-05-07 13:26 | 40.72959 | 50.10613 | 3009 ft | 235 kts | 327° |
| 2026-05-07 13:26 | 40.74065 | 50.09046 | 3014 ft | 237 kts | 298° |
| 2026-05-07 13:27 | 40.74476 | 50.06964 | 3014 ft | 237 kts | 270° |
| 2026-05-07 13:27 | 40.74144 | 50.04838 | 3017 ft | 238 kts | 252° |
| 2026-05-07 13:27 | 40.73640 | 50.02762 | 3010 ft | 238 kts | 252° |
| 2026-05-07 13:27 | 40.73138 | 50.00705 | 2801 ft | 234 kts | 252° |
| 2026-05-07 13:28 | 40.72546 | 49.98711 | 2353 ft | 234 kts | 236° |
| 2026-05-07 13:28 | 40.71381 | 49.97299 | 2017 ft | 226 kts | 204° |
| 2026-05-07 13:28 | 40.69861 | 49.96840 | 2009 ft | 226 kts | 176° |
| 2026-05-07 13:28 | 40.68317 | 49.97203 | 2008 ft | 226 kts | 166° |
| 2026-05-07 13:29 | 40.66781 | 49.97668 | 2014 ft | 227 kts | 165° |
| 2026-05-07 13:29 | 40.65244 | 49.98129 | 2009 ft | 227 kts | 168° |
| 2026-05-07 13:29 | 40.63690 | 49.98494 | 2004 ft | 222 kts | 167° |
| 2026-05-07 13:29 | 40.62261 | 49.98898 | 2012 ft | 202 kts | 165° |
| 2026-05-07 13:30 | 40.60911 | 49.99318 | 2019 ft | 198 kts | 165° |
| 2026-05-07 13:30 | 40.59640 | 49.99718 | 2004 ft | 175 kts | 164° |
| 2026-05-07 13:30 | 40.58524 | 50.00069 | 1868 ft | 159 kts | 163° |
| 2026-05-07 13:30 | 40.57472 | 50.00401 | 1690 ft | 151 kts | 163° |
| 2026-05-07 13:31 | 40.56475 | 50.00716 | 1500 ft | 145 kts | 164° |
| 2026-05-07 13:31 | 40.55488 | 50.01028 | 1312 ft | 146 kts | 164° |
| 2026-05-07 13:31 | 40.54501 | 50.01339 | 1123 ft | 146 kts | 164° |
| 2026-05-07 13:31 | 40.53522 | 50.01652 | 940 ft | 143 kts | 165° |
| 2026-05-07 13:32 | 40.52565 | 50.01962 | 742 ft | 140 kts | 166° |
| 2026-05-07 13:32 | 40.51621 | 50.02266 | 577 ft | 139 kts | 167° |
| 2026-05-07 13:32 | 40.50684 | 50.02575 | 448 ft | 140 kts | 166° |
| 2026-05-07 13:32 | 40.49725 | 50.02857 | 229 ft | 140 kts | 166° |
| 2026-05-07 13:33 | 40.48783 | 50.03139 | 40 ft | 138 kts | 167° |
| 2026-05-07 13:33 | 40.47933 | 50.03402 | 6 ft | 106 kts | 167° |
| 2026-05-07 13:33 | 40.47380 | 50.03577 | 4 ft | 57 kts | 166° |
| 2026-05-07 13:33 | 40.47095 | 50.03665 | 2 ft | 37 kts | 167° |
| 2026-05-07 13:34 | 40.46896 | 50.03728 | -1 ft | 22 kts | 166° |
| 2026-05-07 13:34 | 40.46818 | 50.03899 | -2 ft | 0 kts | 76° |
| 2026-05-07 13:34 | 40.46818 | 50.03901 | -2 ft | 0 kts | 76° |
| 2026-05-07 13:35 | 40.46819 | 50.03905 | -2 ft | 1 kts | 76° |
| 2026-05-07 13:35 | 40.46820 | 50.03911 | -2 ft | 1 kts | 76° |
| 2026-05-07 13:35 | 40.46822 | 50.03923 | -1 ft | 2 kts | 76° |
| 2026-05-07 13:35 | 40.46826 | 50.03941 | -1 ft | 3 kts | 76° |
| 2026-05-07 13:36 | 40.46821 | 50.03996 | -1 ft | 7 kts | 110° |
| 2026-05-07 13:36 | 40.46778 | 50.04034 | -2 ft | 8 kts | 158° |
| 2026-05-07 13:36 | 40.46704 | 50.04074 | -2 ft | 16 kts | 159° |
| 2026-05-07 13:36 | 40.46599 | 50.04126 | -3 ft | 14 kts | 159° |
| 2026-05-07 13:37 | 40.46538 | 50.04213 | -3 ft | 14 kts | 94° |
| 2026-05-07 13:37 | 40.46542 | 50.04349 | -3 ft | 15 kts | 87° |
| 2026-05-07 13:37 | 40.46546 | 50.04481 | -3 ft | 15 kts | 88° |
| 2026-05-07 13:37 | 40.46549 | 50.04618 | -2 ft | 15 kts | 88° |
| 2026-05-07 13:38 | 40.46552 | 50.04747 | -2 ft | 10 kts | 88° |
| 2026-05-07 13:38 | 40.46522 | 50.04812 | -2 ft | 9 kts | 176° |
| 2026-05-07 13:38 | 40.46494 | 50.04803 | -2 ft | 1 kts | 201° |
| 2026-05-07 13:38 | 40.46479 | 50.04800 | -2 ft | 2 kts | 172° |
| 2026-05-07 13:39 | 40.46465 | 50.04815 | -2 ft | 4 kts | 142° |
| 2026-05-07 13:39 | 40.46439 | 50.04839 | -2 ft | 5 kts | 146° |
| 2026-05-07 13:39 | 40.46409 | 50.04864 | -2 ft | 4 kts | 148° |
| 2026-05-07 13:39 | 40.46406 | 50.04867 | -2 ft | 0 kts | 148° |